Time;durP1;ratioP1;P1;durP2;ratioP2;P2;SDS_P1;SDS_P2;PMS_P1;PMS_P2;Temp;Humidity;BMP_temperature;BMP_pressure;BME280_temperature;BME280_humidity;BME280_pressure;Samples;Min_cycle;Max_cycle;Signal;HPM_P1;HPM_P2
2021/01/27 00:06:34;;;;;;;21.98;13.00;;;;;;;;;;6129557;23;20300;-90
2021/01/27 00:16:49;;;;;;;26.73;13.68;;;;;;;;;;5929120;23;20032;-90
2021/01/27 00:20:09;;;;;;;24.35;13.60;;;;;;;;;;6086684;23;20026;-89
2021/01/27 00:23:10;;;;;;;25.02;13.90;;;;;;;;;;5990229;23;20410;-90
2021/01/27 00:29:37;;;;;;;27.70;15.90;;;;;;;;;;5899580;24;20034;-90
2021/01/27 00:36:21;;;;;;;30.30;17.02;;;;;;;;;;5985084;23;20511;-89
2021/01/27 00:39:52;;;;;;;32.35;17.13;;;;;;;;;;5932120;23;20096;-89
2021/01/27 00:43:20;;;;;;;29.35;17.23;;;;;;;;;;5950199;23;20038;-90
2021/01/27 00:57:18;;;;;;;;;;;;;;;;;;;;;
2021/01/27 01:11:00;;;;;;;;;;;;;;;;;;;;;
2021/01/27 01:20:53;;;;;;;;;;;;;;;;;;;;;
2021/01/27 01:24:03;;;;;;;50.25;24.15;;;;;;;;;;5874107;24;20022;-90
2021/01/27 01:27:12;;;;;;;44.00;22.73;;;;;;;;;;5992019;23;20054;-90
2021/01/27 01:30:15;;;;;;;47.83;25.00;;;;;;;;;;6001401;23;20339;-89
2021/01/27 01:33:00;;;;;;;47.58;24.95;;;;;;;;;;5971846;23;20059;-90
2021/01/27 01:35:37;;;;;;;47.20;24.08;;;;;;;;;;6041536;23;20303;-88
2021/01/27 01:38:15;;;;;;;43.65;26.20;;;;;;;;;;6031774;23;20019;-89
2021/01/27 01:40:45;;;;;;;50.42;27.23;;;;;;;;;;6041427;23;20153;-89
2021/01/27 01:43:23;;;;;;;47.38;27.27;;;;;;;;;;6125492;23;20030;-89
2021/01/27 01:45:54;;;;;;;57.67;28.70;;;;;;;;;;6104236;23;20442;-89
2021/01/27 01:48:21;;;;;;;48.20;26.77;;;;;;;;;;6153511;23;20029;-90
2021/01/27 01:50:53;;;;;;;46.85;27.48;;;;;;;;;;6149306;23;20080;-90
2021/01/27 01:53:22;;;;;;;46.72;25.98;;;;;;;;;;6223422;23;20032;-90
2021/01/27 01:55:51;;;;;;;43.42;26.13;;;;;;;;;;6250532;23;20090;-90
2021/01/27 01:58:18;;;;;;;43.28;24.63;;;;;;;;;;6235704;22;20060;-90
2021/01/27 02:00:48;;;;;;;37.95;24.13;;;;;;;;;;6242010;22;20059;-89
2021/01/27 02:03:15;;;;;;;37.75;22.80;;;;;;;;;;6253754;23;20071;-89
2021/01/27 02:05:41;;;;;;;51.50;25.80;;;;;;;;;;6222656;23;20032;-90
2021/01/27 02:08:08;;;;;;;39.95;24.10;;;;;;;;;;6222433;23;20080;-90
2021/01/27 02:10:34;;;;;;;42.38;25.27;;;;;;;;;;6247518;23;20028;-90
2021/01/27 02:13:16;;;;;;;46.47;26.42;;;;;;;;;;6249544;23;20258;-89
2021/01/27 02:15:50;;;;;;;52.17;25.95;;;;;;;;;;6222217;23;20082;-90
2021/01/27 02:18:32;;;;;;;48.47;27.02;;;;;;;;;;6222044;23;20035;-89
2021/01/27 02:21:17;;;;;;;53.65;26.30;;;;;;;;;;6221938;23;20050;-90
2021/01/27 02:23:49;;;;;;;51.03;28.77;;;;;;;;;;6249241;23;20055;-89
2021/01/27 02:26:18;;;;;;;48.03;27.20;;;;;;;;;;6221723;23;20410;-90
2021/01/27 02:29:00;;;;;;;48.72;28.15;;;;;;;;;;6224499;23;20412;-89
2021/01/27 02:31:30;;;;;;;51.45;28.92;;;;;;;;;;6248022;23;20107;-90
2021/01/27 02:34:16;;;;;;;47.22;27.25;;;;;;;;;;6223727;23;20032;-89
2021/01/27 02:36:50;;;;;;;51.03;28.20;;;;;;;;;;6225843;23;20406;-89
2021/01/27 02:39:26;;;;;;;57.50;29.90;;;;;;;;;;6225692;23;20107;-89
2021/01/27 02:41:56;;;;;;;50.13;28.88;;;;;;;;;;6249757;23;20079;-89
2021/01/27 02:44:26;;;;;;;51.50;28.58;;;;;;;;;;6223104;23;20035;-89
2021/01/27 02:46:54;;;;;;;53.25;30.67;;;;;;;;;;6248817;23;20099;-89
2021/01/27 02:49:38;;;;;;;54.22;28.15;;;;;;;;;;6222566;23;20095;-89
2021/01/27 02:52:11;;;;;;;52.20;29.50;;;;;;;;;;6222917;23;20024;-89
2021/01/27 02:54:48;;;;;;;51.38;28.63;;;;;;;;;;6222697;23;20055;-89
2021/01/27 02:57:44;;;;;;;58.95;30.13;;;;;;;;;;6222818;23;20035;-89
2021/01/27 03:00:21;;;;;;;43.22;27.02;;;;;;;;;;6248596;23;20102;-89
2021/01/27 03:03:11;;;;;;;52.15;28.75;;;;;;;;;;6249828;23;20024;-89
2021/01/27 03:05:40;;;;;;;55.80;29.33;;;;;;;;;;6212537;23;20459;-89
2021/01/27 03:08:15;;;;;;;48.15;27.40;;;;;;;;;;6223276;23;20028;-89
2021/01/27 03:10:48;;;;;;;44.40;28.45;;;;;;;;;;6222383;23;20324;-89
2021/01/27 03:13:15;;;;;;;53.03;29.55;;;;;;;;;;6223829;23;20055;-88
2021/01/27 03:15:42;;;;;;;50.28;28.83;;;;;;;;;;6222254;23;20024;-88
2021/01/27 03:18:23;;;;;;;50.33;29.95;;;;;;;;;;6221035;23;20177;-88
2021/01/27 03:20:51;;;;;;;54.90;29.13;;;;;;;;;;6249430;23;20079;-88
2021/01/27 03:23:20;;;;;;;57.55;30.75;;;;;;;;;;6249063;23;20024;-88
2021/01/27 03:26:14;;;;;;;52.40;30.33;;;;;;;;;;6268730;23;20079;-88
2021/01/27 03:29:07;;;;;;;54.65;31.15;;;;;;;;;;6269834;23;20028;-88
2021/01/27 03:31:33;;;;;;;58.85;31.92;;;;;;;;;;6228697;23;20024;-88
2021/01/27 03:34:04;;;;;;;57.95;31.52;;;;;;;;;;6237827;23;20307;-88
2021/01/27 03:36:36;;;;;;;61.03;32.22;;;;;;;;;;6224625;23;20154;-88
2021/01/27 03:39:03;;;;;;;58.58;31.70;;;;;;;;;;6248616;23;20025;-91
2021/01/27 03:41:48;;;;;;;60.30;31.98;;;;;;;;;;6224276;23;20024;-90
2021/01/27 03:44:23;;;;;;;53.70;31.67;;;;;;;;;;6248597;23;20036;-91
2021/01/27 03:46:56;;;;;;;53.63;29.52;;;;;;;;;;6248051;22;20028;-90
2021/01/27 03:49:33;;;;;;;59.63;32.25;;;;;;;;;;6223328;23;20083;-91
2021/01/27 03:52:21;;;;;;;63.97;32.92;;;;;;;;;;6252477;23;20028;-90
2021/01/27 03:54:58;;;;;;;54.00;31.50;;;;;;;;;;6222142;23;20103;-90
2021/01/27 03:57:32;;;;;;;57.03;32.65;;;;;;;;;;6224283;23;20100;-91
2021/01/27 03:59:59;;;;;;;61.92;31.13;;;;;;;;;;6249381;23;20024;-90
2021/01/27 04:02:25;;;;;;;53.55;29.50;;;;;;;;;;6223338;23;20020;-90
2021/01/27 04:04:53;;;;;;;52.95;30.75;;;;;;;;;;6249339;23;20028;-90
2021/01/27 04:07:22;;;;;;;57.42;30.23;;;;;;;;;;6249937;23;20039;-90
2021/01/27 04:09:48;;;;;;;51.08;30.15;;;;;;;;;;6222961;23;20352;-90
2021/01/27 04:12:17;;;;;;;52.92;30.98;;;;;;;;;;6249538;23;20039;-90
2021/01/27 04:14:43;;;;;;;51.67;30.38;;;;;;;;;;6249092;23;20024;-91
2021/01/27 04:17:10;;;;;;;47.58;29.10;;;;;;;;;;6247953;23;20084;-89
2021/01/27 04:19:36;;;;;;;49.25;29.52;;;;;;;;;;6221847;23;20024;-89
2021/01/27 04:22:03;;;;;;;46.78;29.73;;;;;;;;;;6248165;23;20103;-90
2021/01/27 04:24:29;;;;;;;50.05;27.95;;;;;;;;;;6248599;23;20024;-90
2021/01/27 04:27:00;;;;;;;49.40;28.05;;;;;;;;;;6224065;23;20032;-90
2021/01/27 04:29:27;;;;;;;51.45;28.55;;;;;;;;;;6222852;23;20032;-89
2021/01/27 04:31:55;;;;;;;51.15;28.90;;;;;;;;;;6249522;23;20035;-90
2021/01/27 04:34:29;;;;;;;53.67;30.58;;;;;;;;;;6223352;23;20035;-89
2021/01/27 04:36:56;;;;;;;53.75;28.92;;;;;;;;;;6250133;23;20063;-89
2021/01/27 04:39:22;;;;;;;45.35;27.85;;;;;;;;;;6222647;23;20059;-89
2021/01/27 04:41:48;;;;;;;51.15;29.58;;;;;;;;;;6223625;23;20027;-89
2021/01/27 04:44:17;;;;;;;48.90;27.27;;;;;;;;;;6224265;23;20042;-89
2021/01/27 04:46:56;;;;;;;47.40;28.98;;;;;;;;;;6260432;22;20031;-89
2021/01/27 04:49:26;;;;;;;56.30;28.55;;;;;;;;;;6268195;22;20044;-89
2021/01/27 04:51:56;;;;;;;55.13;29.75;;;;;;;;;;6264922;22;20035;-89
2021/01/27 04:54:31;;;;;;;54.47;28.65;;;;;;;;;;6227061;23;20024;-90
2021/01/27 04:57:07;;;;;;;52.47;28.92;;;;;;;;;;6222549;23;20035;-89
2021/01/27 04:59:41;;;;;;;47.58;27.55;;;;;;;;;;6235860;23;20039;-89
2021/01/27 05:02:23;;;;;;;47.55;28.30;;;;;;;;;;6237015;23;20051;-89
2021/01/27 05:04:55;;;;;;;52.55;27.55;;;;;;;;;;6219658;23;20083;-89
2021/01/27 05:07:27;;;;;;;49.03;29.00;;;;;;;;;;6246920;23;20035;-89
2021/01/27 05:09:56;;;;;;;50.35;27.85;;;;;;;;;;6247587;23;20142;-89
2021/01/27 05:12:24;;;;;;;48.20;27.58;;;;;;;;;;6247092;23;20261;-89
2021/01/27 05:14:51;;;;;;;49.65;27.33;;;;;;;;;;6246249;23;20208;-89
2021/01/27 05:17:19;;;;;;;47.50;27.75;;;;;;;;;;6220028;23;20064;-90
2021/01/27 05:19:48;;;;;;;51.47;27.33;;;;;;;;;;6248272;23;20024;-89
2021/01/27 05:22:14;;;;;;;53.50;27.23;;;;;;;;;;6219878;23;20098;-89
2021/01/27 05:24:42;;;;;;;51.88;26.55;;;;;;;;;;6221573;23;20086;-89
2021/01/27 05:27:19;;;;;;;45.03;26.45;;;;;;;;;;6219732;23;20024;-89
2021/01/27 05:29:48;;;;;;;40.42;26.23;;;;;;;;;;6218563;23;20024;-90
2021/01/27 05:32:17;;;;;;;46.15;25.98;;;;;;;;;;6219095;23;20025;-90
2021/01/27 05:34:48;;;;;;;44.78;24.58;;;;;;;;;;6244822;23;20413;-89
2021/01/27 05:37:21;;;;;;;43.80;25.23;;;;;;;;;;6243982;23;20028;-90
2021/01/27 05:39:48;;;;;;;46.05;26.45;;;;;;;;;;6245981;23;20302;-90
2021/01/27 05:42:27;;;;;;;38.42;23.85;;;;;;;;;;6220598;23;20372;-90
2021/01/27 05:44:56;;;;;;;47.83;25.05;;;;;;;;;;6219182;23;20036;-89
2021/01/27 05:47:26;;;;;;;42.60;25.02;;;;;;;;;;6245838;22;20024;-89
2021/01/27 05:49:53;;;;;;;39.22;23.90;;;;;;;;;;6252213;23;20024;-90
2021/01/27 05:52:25;;;;;;;85.40;27.65;;;;;;;;;;6219405;23;20054;-90
2021/01/27 05:54:51;;;;;;;41.78;24.00;;;;;;;;;;6246010;23;20017;-90
2021/01/27 05:57:25;;;;;;;40.13;24.15;;;;;;;;;;6219353;23;20020;-90
2021/01/27 06:00:20;;;;;;;43.55;24.25;;;;;;;;;;6217278;23;20035;-90
2021/01/27 06:02:46;;;;;;;43.28;23.50;;;;;;;;;;6217052;23;20028;-90
2021/01/27 06:05:16;;;;;;;34.38;23.00;;;;;;;;;;6221273;23;20082;-90
2021/01/27 06:07:42;;;;;;;35.92;22.67;;;;;;;;;;6220512;23;20111;-90
2021/01/27 06:10:32;;;;;;;38.90;24.45;;;;;;;;;;6246744;23;20034;-90
2021/01/27 06:13:18;;;;;;;44.00;22.77;;;;;;;;;;6221949;23;20200;-90
2021/01/27 06:15:44;;;;;;;47.75;23.63;;;;;;;;;;6222504;23;20411;-90
2021/01/27 06:18:42;;;;;;;35.80;21.15;;;;;;;;;;6222876;23;20034;-90
2021/01/27 06:21:18;;;;;;;37.38;22.73;;;;;;;;;;6252403;23;20150;-89
2021/01/27 06:23:52;;;;;;;39.10;21.38;;;;;;;;;;6226859;23;20050;-90
2021/01/27 06:26:40;;;;;;;43.30;22.92;;;;;;;;;;6224592;23;20028;-90
2021/01/27 06:29:12;;;;;;;38.10;22.45;;;;;;;;;;6223067;23;20086;-90
2021/01/27 06:31:38;;;;;;;37.40;23.42;;;;;;;;;;6221873;23;20227;-89
2021/01/27 06:34:43;;;;;;;36.75;21.90;;;;;;;;;;6223518;23;20038;-89
2021/01/27 06:37:28;;;;;;;40.28;22.05;;;;;;;;;;6154909;23;20026;-90
2021/01/27 06:40:14;;;;;;;50.65;23.52;;;;;;;;;;6241479;23;20016;-90
2021/01/27 06:42:48;;;;;;;48.53;26.50;;;;;;;;;;6222061;23;20051;-90
2021/01/27 06:45:40;;;;;;;40.80;23.48;;;;;;;;;;6221731;23;20032;-90
2021/01/27 06:48:18;;;;;;;41.40;24.15;;;;;;;;;;6222875;23;20031;-90
2021/01/27 06:51:03;;;;;;;37.80;23.95;;;;;;;;;;6248620;23;20051;-90
2021/01/27 06:53:51;;;;;;;37.10;22.27;;;;;;;;;;6223442;23;20028;-90
2021/01/27 06:56:28;;;;;;;42.28;21.15;;;;;;;;;;6246474;23;20028;-89
2021/01/27 06:59:08;;;;;;;41.17;21.30;;;;;;;;;;6246270;23;20044;-89
2021/01/27 07:01:56;;;;;;;33.78;21.00;;;;;;;;;;6222522;23;20039;-89
2021/01/27 07:04:33;;;;;;;40.92;22.13;;;;;;;;;;6249499;23;20024;-89
2021/01/27 07:07:08;;;;;;;33.97;20.38;;;;;;;;;;6249772;23;20076;-89
2021/01/27 07:09:41;;;;;;;32.17;21.50;;;;;;;;;;6251074;23;20373;-90
2021/01/27 07:12:18;;;;;;;32.90;21.83;;;;;;;;;;6248344;23;20347;-90
2021/01/27 07:15:06;;;;;;;28.77;20.02;;;;;;;;;;6223811;23;20271;-89
2021/01/27 07:17:48;;;;;;;30.92;20.08;;;;;;;;;;6252178;23;20087;-88
2021/01/27 07:21:05;;;;;;;34.03;21.00;;;;;;;;;;6249664;23;20303;-90
2021/01/27 07:23:40;;;;;;;35.33;20.88;;;;;;;;;;6252285;23;20383;-89
2021/01/27 07:29:26;;;;;;;34.47;20.27;;;;;;;;;;6253232;23;20028;-89
2021/01/27 07:31:54;;;;;;;29.05;19.98;;;;;;;;;;6225560;23;20028;-89
2021/01/27 07:34:24;;;;;;;30.40;21.70;;;;;;;;;;6250032;23;20028;-90
2021/01/27 07:37:00;;;;;;;33.55;21.88;;;;;;;;;;6224120;23;20024;-90
2021/01/27 07:39:29;;;;;;;34.38;21.42;;;;;;;;;;6223157;23;20030;-90
2021/01/27 07:42:14;;;;;;;32.88;23.10;;;;;;;;;;6233218;23;20024;-90
2021/01/27 07:44:52;;;;;;;35.33;22.55;;;;;;;;;;6235029;23;20315;-90
2021/01/27 07:47:24;;;;;;;32.72;22.38;;;;;;;;;;6251820;23;20028;-89
2021/01/27 07:49:58;;;;;;;31.05;20.30;;;;;;;;;;6251079;23;20091;-90
2021/01/27 07:52:29;;;;;;;30.33;21.30;;;;;;;;;;6224105;23;20063;-89
2021/01/27 07:55:01;;;;;;;34.65;21.17;;;;;;;;;;6226399;23;20055;-90
2021/01/27 07:57:38;;;;;;;27.15;19.20;;;;;;;;;;6223480;23;20025;-90
2021/01/27 08:00:17;;;;;;;31.13;19.83;;;;;;;;;;6220139;23;20027;-90
2021/01/27 08:02:54;;;;;;;31.80;19.65;;;;;;;;;;6222809;23;20024;-90
2021/01/27 08:05:20;;;;;;;33.72;21.00;;;;;;;;;;6225225;23;20292;-90
2021/01/27 08:08:05;;;;;;;30.42;19.25;;;;;;;;;;6227650;22;20027;-91
2021/01/27 08:10:33;;;;;;;32.65;19.45;;;;;;;;;;6265197;22;20068;-89
2021/01/27 08:13:01;;;;;;;34.97;23.30;;;;;;;;;;6263014;22;20028;-91
2021/01/27 08:15:33;;;;;;;28.35;18.73;;;;;;;;;;6225666;23;20083;-90
2021/01/27 08:18:12;;;;;;;27.63;17.60;;;;;;;;;;6224456;23;20024;-90
2021/01/27 08:20:46;;;;;;;28.42;18.10;;;;;;;;;;6237474;22;20016;-89
2021/01/27 08:23:24;;;;;;;29.75;17.23;;;;;;;;;;6266900;22;20032;-89
2021/01/27 08:26:09;;;;;;;27.50;17.67;;;;;;;;;;6230670;23;20028;-91
2021/01/27 08:28:36;;;;;;;26.38;16.35;;;;;;;;;;6254315;23;20055;-90
2021/01/27 08:31:12;;;;;;;23.45;14.18;;;;;;;;;;6255285;23;20028;-90
2021/01/27 08:33:57;;;;;;;25.73;14.77;;;;;;;;;;6254286;23;20028;-90
2021/01/27 08:37:01;;;;;;;21.92;15.73;;;;;;;;;;6250354;23;20083;-90
2021/01/27 08:39:32;;;;;;;22.88;14.35;;;;;;;;;;6250059;23;20032;-90
2021/01/27 08:42:00;;;;;;;25.08;14.45;;;;;;;;;;6226126;23;20461;-89
2021/01/27 08:44:40;;;;;;;26.27;13.90;;;;;;;;;;6226807;23;20107;-90
2021/01/27 08:47:23;;;;;;;23.25;13.40;;;;;;;;;;6230081;23;20208;-89
2021/01/27 08:50:02;;;;;;;21.00;11.68;;;;;;;;;;6257902;23;20018;-89
2021/01/27 08:52:33;;;;;;;19.65;12.23;;;;;;;;;;6235705;23;20394;-89
2021/01/27 08:55:29;;;;;;;19.42;11.18;;;;;;;;;;6262891;23;20321;-90
2021/01/27 08:58:20;;;;;;;20.67;11.73;;;;;;;;;;6251070;23;20461;-90
2021/01/27 09:00:47;;;;;;;14.88;9.75;;;;;;;;;;6226846;23;20019;-90
2021/01/27 09:03:45;;;;;;;21.98;9.35;;;;;;;;;;6251918;23;20386;-90
2021/01/27 09:06:25;;;;;;;16.08;10.18;;;;;;;;;;6226419;23;20107;-90
2021/01/27 09:08:56;;;;;;;14.35;9.30;;;;;;;;;;6251752;23;20422;-90
2021/01/27 09:11:23;;;;;;;15.23;9.63;;;;;;;;;;6203411;23;20036;-90
2021/01/27 09:13:56;;;;;;;17.85;9.55;;;;;;;;;;6260006;22;20012;-90
2021/01/27 09:16:26;;;;;;;14.18;9.13;;;;;;;;;;6232641;23;20024;-90
2021/01/27 09:18:58;;;;;;;14.43;8.68;;;;;;;;;;6241390;22;20036;-90
2021/01/27 09:21:30;;;;;;;10.50;7.43;;;;;;;;;;6241127;22;20060;-91
2021/01/27 09:24:16;;;;;;;16.38;8.45;;;;;;;;;;6265737;22;20024;-90
2021/01/27 09:26:43;;;;;;;10.70;7.47;;;;;;;;;;6225588;23;20028;-89
2021/01/27 09:29:13;;;;;;;13.45;8.70;;;;;;;;;;6225350;23;20024;-89
2021/01/27 09:31:45;;;;;;;11.20;6.78;;;;;;;;;;6231708;23;20035;-90
2021/01/27 09:34:16;;;;;;;9.93;7.03;;;;;;;;;;6222715;23;20100;-89
2021/01/27 09:36:46;;;;;;;12.27;7.07;;;;;;;;;;6254367;23;20025;-86
2021/01/27 09:39:31;;;;;;;12.38;7.50;;;;;;;;;;6248220;23;20024;-87
2021/01/27 09:42:16;;;;;;;13.32;7.05;;;;;;;;;;6218508;23;20024;-87
2021/01/27 09:44:45;;;;;;;11.00;7.22;;;;;;;;;;6221424;23;20038;-87
2021/01/27 09:47:13;;;;;;;9.35;6.28;;;;;;;;;;6223324;23;20239;-86
2021/01/27 09:49:51;;;;;;;12.18;6.70;;;;;;;;;;6219716;23;20433;-87
2021/01/27 09:52:18;;;;;;;11.50;6.65;;;;;;;;;;6215794;23;20039;-87
2021/01/27 09:54:49;;;;;;;11.40;7.80;;;;;;;;;;6247810;23;20330;-86
2021/01/27 09:57:19;;;;;;;11.07;6.78;;;;;;;;;;6222257;23;20098;-86
2021/01/27 09:59:50;;;;;;;11.25;7.28;;;;;;;;;;6223209;23;20047;-86
2021/01/27 10:02:30;;;;;;;12.10;7.18;;;;;;;;;;6222425;23;20349;-86
2021/01/27 10:04:59;;;;;;;9.90;6.93;;;;;;;;;;6221908;23;20028;-87
2021/01/27 10:07:34;;;;;;;13.85;7.75;;;;;;;;;;6222208;23;20028;-87
2021/01/27 10:10:07;;;;;;;14.10;8.13;;;;;;;;;;6221959;23;20356;-87
2021/01/27 10:12:37;;;;;;;14.75;8.45;;;;;;;;;;6223622;23;20028;-87
2021/01/27 10:15:34;;;;;;;12.32;7.60;;;;;;;;;;6224546;23;20369;-88
2021/01/27 10:18:22;;;;;;;13.23;8.00;;;;;;;;;;6230375;23;20119;-88
2021/01/27 10:21:44;;;;;;;;;;;;;;;;;;;;;
2021/01/27 10:31:30;;;;;;;15.90;9.07;;;;;;;;;;6071496;23;20010;-88
2021/01/27 10:34:34;;;;;;;14.90;8.48;;;;;;;;;;6137615;23;20030;-88
2021/01/27 10:37:19;;;;;;;20.73;9.75;;;;;;;;;;6112119;23;20053;-86
2021/01/27 10:40:05;;;;;;;19.17;9.77;;;;;;;;;;6129420;23;20151;-87
2021/01/27 10:42:35;;;;;;;14.95;9.82;;;;;;;;;;6128271;23;20204;-86
2021/01/27 10:45:11;;;;;;;18.35;9.50;;;;;;;;;;6129335;23;20026;-86
2021/01/27 10:47:38;;;;;;;16.52;10.70;;;;;;;;;;6128127;23;20025;-86
2021/01/27 10:50:05;;;;;;;23.85;9.93;;;;;;;;;;6128398;23;20096;-87
2021/01/27 10:52:31;;;;;;;16.42;10.07;;;;;;;;;;6129808;23;20029;-88
2021/01/27 10:54:59;;;;;;;20.92;10.65;;;;;;;;;;6102794;23;20041;-87
2021/01/27 10:57:43;;;;;;;18.25;10.10;;;;;;;;;;6109436;23;20022;-87
2021/01/27 11:00:13;;;;;;;17.33;9.93;;;;;;;;;;6106485;23;20104;-87
2021/01/27 11:02:39;;;;;;;17.83;9.70;;;;;;;;;;6219265;23;20044;-86
2021/01/27 11:05:05;;;;;;;19.95;10.25;;;;;;;;;;6231624;23;20024;-86
2021/01/27 11:07:32;;;;;;;19.10;9.95;;;;;;;;;;6228450;23;20032;-85
2021/01/27 11:09:58;;;;;;;21.20;10.77;;;;;;;;;;6253702;23;20028;-85
2021/01/27 11:12:24;;;;;;;18.98;10.52;;;;;;;;;;6225830;23;20032;-86
2021/01/27 11:15:00;;;;;;;15.43;9.70;;;;;;;;;;6254422;23;20087;-86
2021/01/27 11:17:26;;;;;;;13.15;9.00;;;;;;;;;;6232778;23;20322;-87
2021/01/27 11:19:53;;;;;;;16.08;10.68;;;;;;;;;;6228069;23;20024;-87
2021/01/27 11:22:23;;;;;;;18.95;10.05;;;;;;;;;;6256800;23;20035;-87
2021/01/27 11:24:50;;;;;;;17.23;9.65;;;;;;;;;;6228223;23;20024;-86
2021/01/27 11:27:16;;;;;;;17.42;9.30;;;;;;;;;;6226039;23;20039;-86
2021/01/27 11:29:42;;;;;;;16.63;10.05;;;;;;;;;;6264994;22;20012;-85
2021/01/27 11:32:10;;;;;;;14.88;10.55;;;;;;;;;;6266870;22;20103;-86
2021/01/27 11:34:37;;;;;;;19.10;9.57;;;;;;;;;;6259408;22;20062;-88
2021/01/27 11:37:21;;;;;;;19.15;9.68;;;;;;;;;;6252896;23;20035;-88
2021/01/27 11:39:49;;;;;;;16.48;11.27;;;;;;;;;;6227168;23;20028;-88
2021/01/27 11:42:26;;;;;;;14.43;10.20;;;;;;;;;;6265623;22;20015;-88
2021/01/27 12:29:03;;;;;;;17.02;11.60;;;;;;;;;;6252142;23;20038;-88
2021/01/27 12:31:29;;;;;;;16.92;10.88;;;;;;;;;;6255141;23;20035;-88
2021/01/27 12:34:00;;;;;;;17.98;11.55;;;;;;;;;;6255186;23;20326;-89
2021/01/27 12:36:27;;;;;;;18.83;11.07;;;;;;;;;;6226963;23;20054;-89
2021/01/27 12:39:08;;;;;;;17.90;10.02;;;;;;;;;;6231027;23;20030;-89
2021/01/27 12:41:48;;;;;;;14.50;9.88;;;;;;;;;;6236246;23;20093;-88
2021/01/27 12:44:23;;;;;;;17.60;10.57;;;;;;;;;;6223722;23;20035;-88
2021/01/27 12:47:17;;;;;;;15.07;10.30;;;;;;;;;;6229504;23;20115;-88
2021/01/27 13:37:59;;;;;;;15.93;11.75;;;;;;;;;;6250651;22;20660;-88
2021/01/27 13:41:10;;;;;;;15.50;11.38;;;;;;;;;;6227077;22;20066;-89
2021/01/27 13:44:23;;;;;;;;;;;;;;;;;;;;;
2021/01/27 13:47:10;;;;;;;16.38;12.05;;;;;;;;;;6255981;23;20027;-87
2021/01/27 13:49:43;;;;;;;16.70;12.63;;;;;;;;;;6224340;23;20028;-87
2021/01/27 13:52:14;;;;;;;16.02;10.52;;;;;;;;;;6222955;23;20028;-87
2021/01/27 13:54:50;;;;;;;15.45;12.38;;;;;;;;;;6222192;23;20299;-87
2021/01/27 13:57:27;;;;;;;13.98;10.48;;;;;;;;;;6223861;23;20161;-86
2021/01/27 14:00:02;;;;;;;14.52;12.48;;;;;;;;;;6222581;23;20024;-87
2021/01/27 14:02:30;;;;;;;17.90;12.40;;;;;;;;;;6220958;23;20224;-87
2021/01/27 14:05:01;;;;;;;15.05;11.68;;;;;;;;;;6220713;23;20024;-86
2021/01/27 14:07:31;;;;;;;14.50;11.88;;;;;;;;;;6245117;23;20028;-87
2021/01/27 14:10:06;;;;;;;16.02;12.77;;;;;;;;;;6217012;23;20201;-86
2021/01/27 14:12:38;;;;;;;17.77;13.27;;;;;;;;;;6217542;23;20035;-87
2021/01/27 14:15:06;;;;;;;19.00;12.75;;;;;;;;;;6215617;23;20028;-87
2021/01/27 14:17:38;;;;;;;17.40;12.70;;;;;;;;;;6217597;23;20047;-87
2021/01/27 14:20:06;;;;;;;17.92;12.48;;;;;;;;;;6216002;23;20025;-86
2021/01/27 14:22:33;;;;;;;20.10;12.80;;;;;;;;;;6212419;23;20024;-87
2021/01/27 14:25:01;;;;;;;20.38;13.50;;;;;;;;;;6216891;23;20262;-87
2021/01/27 14:27:29;;;;;;;19.52;13.10;;;;;;;;;;6242515;23;20051;-87
2021/01/27 14:30:00;;;;;;;18.50;13.57;;;;;;;;;;6217791;23;20249;-87
2021/01/27 14:32:27;;;;;;;29.27;15.13;;;;;;;;;;6246352;23;20149;-87
2021/01/27 14:34:56;;;;;;;17.77;12.88;;;;;;;;;;6220727;23;20111;-88
2021/01/27 14:37:23;;;;;;;19.17;13.60;;;;;;;;;;6223987;22;20023;-88
2021/01/27 14:39:50;;;;;;;18.95;13.30;;;;;;;;;;6255654;22;20224;-88
2021/01/27 14:42:27;;;;;;;18.17;13.98;;;;;;;;;;6250819;22;20185;-88
2021/01/27 14:44:55;;;;;;;18.55;13.00;;;;;;;;;;6256753;22;20034;-88
2021/01/27 14:47:26;;;;;;;19.05;13.98;;;;;;;;;;6249717;22;20027;-88
2021/01/27 14:49:55;;;;;;;17.58;14.02;;;;;;;;;;6286685;22;20016;-88
2021/01/27 14:52:23;;;;;;;18.65;14.10;;;;;;;;;;6267227;22;20011;-86
2021/01/27 14:54:51;;;;;;;17.55;13.98;;;;;;;;;;6259230;22;20087;-86
2021/01/27 14:57:18;;;;;;;18.20;14.18;;;;;;;;;;6277203;22;20027;-88
2021/01/27 14:59:45;;;;;;;22.67;15.40;;;;;;;;;;6254145;22;20011;-88
2021/01/27 15:02:11;;;;;;;20.63;13.88;;;;;;;;;;6263344;22;20038;-88
2021/01/27 15:04:37;;;;;;;20.45;15.30;;;;;;;;;;6262059;22;20022;-87
2021/01/27 15:07:04;;;;;;;20.65;14.77;;;;;;;;;;6231123;23;20060;-88
2021/01/27 15:09:31;;;;;;;24.65;15.38;;;;;;;;;;6237153;22;20016;-87
2021/01/27 15:12:06;;;;;;;19.33;15.48;;;;;;;;;;6238568;23;20067;-89
2021/01/27 15:14:32;;;;;;;19.85;14.40;;;;;;;;;;6235871;23;20040;-89
2021/01/27 15:17:02;;;;;;;23.42;16.33;;;;;;;;;;6229343;23;20024;-86
2021/01/27 15:19:37;;;;;;;20.13;14.93;;;;;;;;;;6223027;23;20028;-88
2021/01/27 15:22:05;;;;;;;23.52;15.27;;;;;;;;;;6245705;23;20039;-88
2021/01/27 15:24:32;;;;;;;23.45;15.40;;;;;;;;;;6220325;23;20107;-88
2021/01/27 15:27:00;;;;;;;22.65;16.80;;;;;;;;;;6217014;23;20077;-88
2021/01/27 15:29:42;;;;;;;22.17;16.70;;;;;;;;;;6219905;23;20028;-88
2021/01/27 15:32:08;;;;;;;24.13;17.17;;;;;;;;;;6243331;23;20024;-88
2021/01/27 15:34:43;;;;;;;22.98;16.92;;;;;;;;;;6216281;23;20032;-88
2021/01/27 15:37:11;;;;;;;25.67;16.92;;;;;;;;;;6217104;23;20066;-88
2021/01/27 15:39:39;;;;;;;23.77;17.30;;;;;;;;;;6220411;23;20051;-88
2021/01/27 15:42:23;;;;;;;21.88;16.17;;;;;;;;;;6220910;23;20103;-88
2021/01/27 15:44:53;;;;;;;26.52;18.88;;;;;;;;;;6248771;23;20382;-88
2021/01/27 15:47:25;;;;;;;25.20;17.42;;;;;;;;;;6221888;23;20055;-87
2021/01/27 15:49:54;;;;;;;28.10;18.58;;;;;;;;;;6242024;23;20086;-88
2021/01/27 15:52:21;;;;;;;25.52;19.55;;;;;;;;;;6244071;23;20038;-88
2021/01/27 15:54:51;;;;;;;24.50;17.23;;;;;;;;;;6219200;23;20032;-88
2021/01/27 15:57:23;;;;;;;40.92;32.22;;;;;;;;;;6218315;23;20063;-90
2021/01/27 16:03:48;;;;;;;36.58;29.15;;;;;;;;;;6094709;23;20021;-86
2021/01/27 16:06:15;;;;;;;28.60;21.30;;;;;;;;;;6066911;23;20744;-84
2021/01/27 16:08:42;;;;;;;27.35;18.85;;;;;;;;;;6180130;23;20028;-84
2021/01/27 16:11:08;;;;;;;28.35;19.55;;;;;;;;;;6212964;23;20064;-83
2021/01/27 16:13:38;;;;;;;27.42;19.13;;;;;;;;;;6216992;23;20028;-84
2021/01/27 16:16:05;;;;;;;32.35;23.05;;;;;;;;;;6232494;23;20032;-83
2021/01/27 16:18:33;;;;;;;27.33;19.92;;;;;;;;;;6224247;23;20059;-84
2021/01/27 16:21:01;;;;;;;32.95;21.73;;;;;;;;;;6213935;23;20302;-84
2021/01/27 16:23:29;;;;;;;30.23;21.60;;;;;;;;;;6215053;23;20099;-83
2021/01/27 16:25:55;;;;;;;30.00;20.20;;;;;;;;;;6214904;23;20044;-84
2021/01/27 16:28:25;;;;;;;33.70;21.88;;;;;;;;;;6214570;23;20028;-84
2021/01/27 16:30:56;;;;;;;29.63;21.25;;;;;;;;;;6215044;23;20028;-84
2021/01/27 16:33:23;;;;;;;42.25;35.83;;;;;;;;;;6216047;23;20182;-84
2021/01/27 16:35:50;;;;;;;26.77;19.92;;;;;;;;;;6214809;23;20099;-84
2021/01/27 16:38:26;;;;;;;28.45;20.73;;;;;;;;;;6218680;23;20036;-85
2021/01/27 16:41:24;;;;;;;31.83;20.85;;;;;;;;;;6222170;23;20370;-87
2021/01/27 16:44:01;;;;;;;30.15;19.65;;;;;;;;;;6221082;23;20028;-85
2021/01/27 16:46:28;;;;;;;30.65;21.73;;;;;;;;;;6219454;23;20040;-86
2021/01/27 16:48:55;;;;;;;30.05;20.30;;;;;;;;;;6215614;23;20037;-86
2021/01/27 16:51:22;;;;;;;31.13;21.38;;;;;;;;;;6221811;23;20089;-86
2021/01/27 16:53:51;;;;;;;28.48;20.85;;;;;;;;;;6222082;23;20116;-86
2021/01/27 16:57:03;;;;;;;;;;;;;;;;;;;;;
2021/01/27 17:14:05;;;;;;;31.23;20.42;;;;;;;;;;6208888;23;20023;-88
2021/01/27 17:17:13;;;;;;;30.90;19.80;;;;;;;;;;6223451;23;20031;-88
2021/01/27 19:51:07;;;;;;;33.67;18.13;;;;;;;;;;6231887;22;20020;-91
2021/01/27 19:53:48;;;;;;;34.30;18.67;;;;;;;;;;6196578;23;20314;-90
2021/01/27 19:56:29;;;;;;;36.75;18.98;;;;;;;;;;6219582;23;20205;-90
2021/01/27 19:59:05;;;;;;;34.63;18.02;;;;;;;;;;6199977;23;20043;-91
2021/01/27 20:01:43;;;;;;;34.97;18.85;;;;;;;;;;6213442;23;20092;-94
2021/01/27 20:04:24;;;;;;;37.00;19.90;;;;;;;;;;6204558;23;20025;-93
2021/01/27 20:06:50;;;;;;;31.77;16.20;;;;;;;;;;6206098;23;20024;-93
2021/01/27 20:09:30;;;;;;;31.08;17.60;;;;;;;;;;6206262;23;20108;-90
2021/01/27 20:12:09;;;;;;;36.10;17.80;;;;;;;;;;6206321;23;20397;-93
2021/01/27 20:14:43;;;;;;;33.03;18.15;;;;;;;;;;6205124;23;20331;-92
2021/01/27 20:17:20;;;;;;;36.80;19.05;;;;;;;;;;6204909;23;20024;-92
2021/01/27 20:20:12;;;;;;;26.77;15.80;;;;;;;;;;6207201;23;20024;-92
2021/01/27 20:22:44;;;;;;;31.63;17.02;;;;;;;;;;6203507;23;20048;-92
2021/01/27 20:25:30;;;;;;;37.70;19.23;;;;;;;;;;6206754;23;20028;-92
2021/01/27 20:28:06;;;;;;;35.08;17.73;;;;;;;;;;6208226;23;20039;-91
2021/01/27 20:30:46;;;;;;;29.92;17.48;;;;;;;;;;6207116;23;20080;-91
2021/01/27 20:33:41;;;;;;;28.23;15.65;;;;;;;;;;6211342;23;20013;-93